sensor_id;sensor_type;location;lat;lon;timestamp;P1;durP1;ratioP1;P2;durP2;ratioP2
67156;SDS011;54086;50.126;8.710;2022-08-18T00:01:02;11.65;;;6.97;;
67156;SDS011;54086;50.126;8.710;2022-08-18T00:03:28;11.53;;;7.30;;
67156;SDS011;54086;50.126;8.710;2022-08-18T00:05:54;11.50;;;6.72;;
67156;SDS011;54086;50.126;8.710;2022-08-18T00:08:20;10.27;;;6.50;;
67156;SDS011;54086;50.126;8.710;2022-08-18T00:10:45;10.63;;;6.90;;
67156;SDS011;54086;50.126;8.710;2022-08-18T00:13:10;11.33;;;7.10;;
67156;SDS011;54086;50.126;8.710;2022-08-18T00:15:36;11.25;;;6.88;;
67156;SDS011;54086;50.126;8.710;2022-08-18T00:18:01;10.20;;;6.77;;
67156;SDS011;54086;50.126;8.710;2022-08-18T00:20:27;11.53;;;7.30;;
67156;SDS011;54086;50.126;8.710;2022-08-18T00:22:52;11.57;;;7.50;;
67156;SDS011;54086;50.126;8.710;2022-08-18T00:25:20;11.88;;;7.70;;
67156;SDS011;54086;50.126;8.710;2022-08-18T00:27:46;10.55;;;7.53;;
67156;SDS011;54086;50.126;8.710;2022-08-18T00:30:13;11.97;;;7.40;;
67156;SDS011;54086;50.126;8.710;2022-08-18T00:33:03;12.73;;;7.07;;
67156;SDS011;54086;50.126;8.710;2022-08-18T00:35:29;10.70;;;7.05;;
67156;SDS011;54086;50.126;8.710;2022-08-18T00:37:58;11.88;;;9.00;;
67156;SDS011;54086;50.126;8.710;2022-08-18T00:40:27;12.57;;;8.23;;
67156;SDS011;54086;50.126;8.710;2022-08-18T00:42:55;12.20;;;8.10;;
67156;SDS011;54086;50.126;8.710;2022-08-18T00:45:25;12.45;;;7.72;;
67156;SDS011;54086;50.126;8.710;2022-08-18T00:47:56;12.85;;;8.27;;
67156;SDS011;54086;50.126;8.710;2022-08-18T00:50:23;13.93;;;8.43;;
67156;SDS011;54086;50.126;8.710;2022-08-18T00:52:57;12.37;;;8.77;;
67156;SDS011;54086;50.126;8.710;2022-08-18T00:55:27;12.05;;;8.68;;
67156;SDS011;54086;50.126;8.710;2022-08-18T00:57:54;12.60;;;8.55;;
67156;SDS011;54086;50.126;8.710;2022-08-18T01:00:26;12.82;;;9.00;;
67156;SDS011;54086;50.126;8.710;2022-08-18T01:02:53;12.15;;;8.23;;
67156;SDS011;54086;50.126;8.710;2022-08-18T01:05:24;12.53;;;8.83;;
67156;SDS011;54086;50.126;8.710;2022-08-18T01:07:54;13.30;;;8.88;;
67156;SDS011;54086;50.126;8.710;2022-08-18T01:10:20;13.93;;;9.10;;
67156;SDS011;54086;50.126;8.710;2022-08-18T01:12:56;12.13;;;8.40;;
67156;SDS011;54086;50.126;8.710;2022-08-18T01:15:23;11.60;;;8.80;;
67156;SDS011;54086;50.126;8.710;2022-08-18T01:17:50;12.27;;;8.93;;
67156;SDS011;54086;50.126;8.710;2022-08-18T01:20:45;12.35;;;8.65;;
67156;SDS011;54086;50.126;8.710;2022-08-18T01:23:26;12.45;;;8.73;;
67156;SDS011;54086;50.126;8.710;2022-08-18T01:25:53;12.63;;;8.90;;
67156;SDS011;54086;50.126;8.710;2022-08-18T01:28:27;12.87;;;8.87;;
67156;SDS011;54086;50.126;8.710;2022-08-18T01:31:01;12.07;;;8.93;;
67156;SDS011;54086;50.126;8.710;2022-08-18T01:33:28;11.60;;;8.63;;
67156;SDS011;54086;50.126;8.710;2022-08-18T01:36:03;15.30;;;8.65;;
67156;SDS011;54086;50.126;8.710;2022-08-18T01:38:29;15.70;;;8.73;;
67156;SDS011;54086;50.126;8.710;2022-08-18T01:40:58;11.77;;;8.17;;
67156;SDS011;54086;50.126;8.710;2022-08-18T01:43:24;12.55;;;9.00;;
67156;SDS011;54086;50.126;8.710;2022-08-18T01:45:49;12.88;;;9.00;;
67156;SDS011;54086;50.126;8.710;2022-08-18T01:48:15;12.87;;;8.70;;
67156;SDS011;54086;50.126;8.710;2022-08-18T01:50:41;12.30;;;9.32;;
67156;SDS011;54086;50.126;8.710;2022-08-18T01:53:08;13.57;;;8.48;;
67156;SDS011;54086;50.126;8.710;2022-08-18T01:55:35;12.20;;;8.43;;
67156;SDS011;54086;50.126;8.710;2022-08-18T01:58:02;12.18;;;8.43;;
67156;SDS011;54086;50.126;8.710;2022-08-18T02:00:28;12.27;;;8.70;;
67156;SDS011;54086;50.126;8.710;2022-08-18T02:02:54;13.17;;;8.73;;
67156;SDS011;54086;50.126;8.710;2022-08-18T02:05:26;12.70;;;8.95;;
67156;SDS011;54086;50.126;8.710;2022-08-18T02:07:57;14.32;;;9.63;;
67156;SDS011;54086;50.126;8.710;2022-08-18T02:10:23;12.18;;;9.07;;
67156;SDS011;54086;50.126;8.710;2022-08-18T02:12:49;13.80;;;9.60;;
67156;SDS011;54086;50.126;8.710;2022-08-18T02:15:14;12.02;;;9.05;;
67156;SDS011;54086;50.126;8.710;2022-08-18T02:17:40;17.37;;;9.83;;
67156;SDS011;54086;50.126;8.710;2022-08-18T02:20:09;13.13;;;8.38;;
67156;SDS011;54086;50.126;8.710;2022-08-18T02:22:37;13.20;;;8.60;;
67156;SDS011;54086;50.126;8.710;2022-08-18T02:25:03;14.55;;;8.18;;
67156;SDS011;54086;50.126;8.710;2022-08-18T02:27:29;11.98;;;7.85;;
67156;SDS011;54086;50.126;8.710;2022-08-18T02:29:54;13.07;;;8.67;;
67156;SDS011;54086;50.126;8.710;2022-08-18T02:32:20;12.17;;;8.07;;
67156;SDS011;54086;50.126;8.710;2022-08-18T02:34:45;11.80;;;7.93;;
67156;SDS011;54086;50.126;8.710;2022-08-18T02:37:10;11.13;;;7.60;;
67156;SDS011;54086;50.126;8.710;2022-08-18T02:39:36;11.10;;;8.10;;
67156;SDS011;54086;50.126;8.710;2022-08-18T02:42:05;12.15;;;7.85;;
67156;SDS011;54086;50.126;8.710;2022-08-18T02:44:31;10.52;;;7.72;;
67156;SDS011;54086;50.126;8.710;2022-08-18T02:46:57;12.00;;;7.88;;
67156;SDS011;54086;50.126;8.710;2022-08-18T02:49:23;13.10;;;7.57;;
67156;SDS011;54086;50.126;8.710;2022-08-18T02:51:52;10.80;;;7.53;;
67156;SDS011;54086;50.126;8.710;2022-08-18T02:54:19;11.55;;;7.57;;
67156;SDS011;54086;50.126;8.710;2022-08-18T02:56:47;12.07;;;8.13;;
67156;SDS011;54086;50.126;8.710;2022-08-18T02:59:16;10.80;;;7.53;;
67156;SDS011;54086;50.126;8.710;2022-08-18T03:01:45;11.00;;;7.85;;
67156;SDS011;54086;50.126;8.710;2022-08-18T03:04:13;11.23;;;7.40;;
67156;SDS011;54086;50.126;8.710;2022-08-18T03:06:41;14.60;;;7.78;;
67156;SDS011;54086;50.126;8.710;2022-08-18T03:09:08;14.45;;;7.22;;
67156;SDS011;54086;50.126;8.710;2022-08-18T03:11:37;11.27;;;7.60;;
67156;SDS011;54086;50.126;8.710;2022-08-18T03:14:02;12.05;;;7.20;;
67156;SDS011;54086;50.126;8.710;2022-08-18T03:16:29;10.70;;;6.77;;
67156;SDS011;54086;50.126;8.710;2022-08-18T03:18:57;11.05;;;7.35;;
67156;SDS011;54086;50.126;8.710;2022-08-18T03:21:24;13.15;;;7.50;;
67156;SDS011;54086;50.126;8.710;2022-08-18T03:23:51;15.02;;;7.03;;
67156;SDS011;54086;50.126;8.710;2022-08-18T03:26:19;10.85;;;6.80;;
67156;SDS011;54086;50.126;8.710;2022-08-18T03:28:46;12.37;;;7.87;;
67156;SDS011;54086;50.126;8.710;2022-08-18T03:31:13;10.20;;;6.45;;
67156;SDS011;54086;50.126;8.710;2022-08-18T03:33:40;13.80;;;8.70;;
67156;SDS011;54086;50.126;8.710;2022-08-18T03:36:10;12.57;;;7.68;;
67156;SDS011;54086;50.126;8.710;2022-08-18T03:38:38;12.82;;;8.27;;
67156;SDS011;54086;50.126;8.710;2022-08-18T03:41:05;12.53;;;7.47;;
67156;SDS011;54086;50.126;8.710;2022-08-18T03:43:32;11.32;;;7.53;;
67156;SDS011;54086;50.126;8.710;2022-08-18T03:46:02;11.70;;;7.10;;
67156;SDS011;54086;50.126;8.710;2022-08-18T03:48:29;11.10;;;6.73;;
67156;SDS011;54086;50.126;8.710;2022-08-18T03:50:54;13.90;;;7.38;;
67156;SDS011;54086;50.126;8.710;2022-08-18T03:53:27;10.27;;;7.03;;
67156;SDS011;54086;50.126;8.710;2022-08-18T03:55:52;12.10;;;7.73;;
67156;SDS011;54086;50.126;8.710;2022-08-18T03:58:18;11.83;;;6.80;;
67156;SDS011;54086;50.126;8.710;2022-08-18T04:00:43;11.30;;;7.18;;
67156;SDS011;54086;50.126;8.710;2022-08-18T04:03:08;11.57;;;7.57;;
67156;SDS011;54086;50.126;8.710;2022-08-18T04:05:37;12.82;;;7.55;;
67156;SDS011;54086;50.126;8.710;2022-08-18T04:08:04;11.93;;;7.37;;
67156;SDS011;54086;50.126;8.710;2022-08-18T04:10:30;11.30;;;6.78;;
67156;SDS011;54086;50.126;8.710;2022-08-18T04:12:56;12.48;;;7.22;;
67156;SDS011;54086;50.126;8.710;2022-08-18T04:15:21;12.90;;;7.50;;
67156;SDS011;54086;50.126;8.710;2022-08-18T04:17:47;12.67;;;7.50;;
67156;SDS011;54086;50.126;8.710;2022-08-18T04:20:12;13.68;;;7.53;;
67156;SDS011;54086;50.126;8.710;2022-08-18T04:22:38;12.27;;;7.37;;
67156;SDS011;54086;50.126;8.710;2022-08-18T04:25:04;29.58;;;10.48;;
67156;SDS011;54086;50.126;8.710;2022-08-18T04:27:33;17.03;;;8.07;;
67156;SDS011;54086;50.126;8.710;2022-08-18T04:30:00;10.40;;;7.00;;
67156;SDS011;54086;50.126;8.710;2022-08-18T04:32:25;13.10;;;8.07;;
67156;SDS011;54086;50.126;8.710;2022-08-18T04:34:51;16.33;;;7.77;;
67156;SDS011;54086;50.126;8.710;2022-08-18T04:37:16;12.93;;;7.17;;
67156;SDS011;54086;50.126;8.710;2022-08-18T04:39:42;19.27;;;8.27;;
67156;SDS011;54086;50.126;8.710;2022-08-18T04:42:08;16.48;;;8.05;;
67156;SDS011;54086;50.126;8.710;2022-08-18T04:44:34;14.63;;;8.07;;
67156;SDS011;54086;50.126;8.710;2022-08-18T04:47:02;13.15;;;7.30;;
67156;SDS011;54086;50.126;8.710;2022-08-18T04:49:28;14.43;;;7.78;;
67156;SDS011;54086;50.126;8.710;2022-08-18T04:51:56;12.38;;;7.07;;
67156;SDS011;54086;50.126;8.710;2022-08-18T04:54:41;12.57;;;7.80;;
67156;SDS011;54086;50.126;8.710;2022-08-18T04:57:12;11.13;;;7.07;;
67156;SDS011;54086;50.126;8.710;2022-08-18T04:59:42;12.07;;;6.93;;
67156;SDS011;54086;50.126;8.710;2022-08-18T05:02:09;12.18;;;7.20;;
67156;SDS011;54086;50.126;8.710;2022-08-18T05:04:35;13.50;;;7.47;;
67156;SDS011;54086;50.126;8.710;2022-08-18T05:07:03;11.45;;;7.20;;
67156;SDS011;54086;50.126;8.710;2022-08-18T05:09:29;11.70;;;6.70;;
67156;SDS011;54086;50.126;8.710;2022-08-18T05:11:55;11.80;;;6.85;;
67156;SDS011;54086;50.126;8.710;2022-08-18T05:14:20;11.77;;;6.83;;
67156;SDS011;54086;50.126;8.710;2022-08-18T05:16:46;11.57;;;6.88;;
67156;SDS011;54086;50.126;8.710;2022-08-18T05:19:13;11.27;;;6.63;;
67156;SDS011;54086;50.126;8.710;2022-08-18T05:21:39;12.60;;;6.68;;
67156;SDS011;54086;50.126;8.710;2022-08-18T05:24:06;9.90;;;6.53;;
67156;SDS011;54086;50.126;8.710;2022-08-18T05:26:33;12.75;;;7.10;;
67156;SDS011;54086;50.126;8.710;2022-08-18T05:28:59;11.85;;;6.30;;
67156;SDS011;54086;50.126;8.710;2022-08-18T05:31:26;11.00;;;5.77;;
67156;SDS011;54086;50.126;8.710;2022-08-18T05:33:53;11.23;;;6.00;;
67156;SDS011;54086;50.126;8.710;2022-08-18T05:41:43;10.82;;;6.22;;
67156;SDS011;54086;50.126;8.710;2022-08-18T05:44:16;10.00;;;5.88;;
67156;SDS011;54086;50.126;8.710;2022-08-18T05:46:49;9.65;;;5.43;;
67156;SDS011;54086;50.126;8.710;2022-08-18T05:49:20;10.05;;;5.85;;
67156;SDS011;54086;50.126;8.710;2022-08-18T05:51:50;12.90;;;6.23;;
67156;SDS011;54086;50.126;8.710;2022-08-18T05:54:18;11.38;;;5.90;;
67156;SDS011;54086;50.126;8.710;2022-08-18T05:57:06;9.88;;;5.97;;
67156;SDS011;54086;50.126;8.710;2022-08-18T05:59:37;13.50;;;6.00;;
67156;SDS011;54086;50.126;8.710;2022-08-18T06:02:13;13.30;;;6.47;;
67156;SDS011;54086;50.126;8.710;2022-08-18T06:04:50;10.67;;;6.13;;
67156;SDS011;54086;50.126;8.710;2022-08-18T06:07:40;10.77;;;6.15;;
67156;SDS011;54086;50.126;8.710;2022-08-18T06:10:11;9.32;;;6.13;;
67156;SDS011;54086;50.126;8.710;2022-08-18T06:12:45;12.05;;;6.07;;
67156;SDS011;54086;50.126;8.710;2022-08-18T06:15:24;12.07;;;6.82;;
67156;SDS011;54086;50.126;8.710;2022-08-18T06:23:41;14.23;;;7.45;;
67156;SDS011;54086;50.126;8.710;2022-08-18T06:29:17;12.77;;;7.28;;
67156;SDS011;54086;50.126;8.710;2022-08-18T06:35:21;13.88;;;7.28;;
67156;SDS011;54086;50.126;8.710;2022-08-18T06:38:04;15.25;;;7.55;;
67156;SDS011;54086;50.126;8.710;2022-08-18T06:41:01;13.00;;;7.30;;
67156;SDS011;54086;50.126;8.710;2022-08-18T06:43:39;15.18;;;8.18;;
67156;SDS011;54086;50.126;8.710;2022-08-18T06:46:17;12.90;;;8.07;;
67156;SDS011;54086;50.126;8.710;2022-08-18T06:48:53;23.73;;;9.30;;
67156;SDS011;54086;50.126;8.710;2022-08-18T06:51:25;15.65;;;8.82;;
67156;SDS011;54086;50.126;8.710;2022-08-18T06:53:53;14.50;;;8.10;;
67156;SDS011;54086;50.126;8.710;2022-08-18T06:56:49;13.57;;;8.07;;
67156;SDS011;54086;50.126;8.710;2022-08-18T07:01:51;13.98;;;8.77;;
67156;SDS011;54086;50.126;8.710;2022-08-18T07:07:23;15.38;;;9.30;;
67156;SDS011;54086;50.126;8.710;2022-08-18T07:09:55;14.05;;;8.30;;
67156;SDS011;54086;50.126;8.710;2022-08-18T07:12:22;15.90;;;8.40;;
67156;SDS011;54086;50.126;8.710;2022-08-18T07:15:08;16.92;;;8.30;;
67156;SDS011;54086;50.126;8.710;2022-08-18T07:17:37;13.67;;;8.13;;
67156;SDS011;54086;50.126;8.710;2022-08-18T07:20:07;14.77;;;7.82;;
67156;SDS011;54086;50.126;8.710;2022-08-18T07:22:58;15.50;;;8.30;;
67156;SDS011;54086;50.126;8.710;2022-08-18T07:25:30;15.68;;;8.25;;
67156;SDS011;54086;50.126;8.710;2022-08-18T07:28:02;14.57;;;8.10;;
67156;SDS011;54086;50.126;8.710;2022-08-18T07:30:33;15.55;;;8.13;;
67156;SDS011;54086;50.126;8.710;2022-08-18T07:35:39;15.60;;;8.48;;
67156;SDS011;54086;50.126;8.710;2022-08-18T07:38:14;13.00;;;8.00;;
67156;SDS011;54086;50.126;8.710;2022-08-18T07:40:47;15.00;;;8.00;;
67156;SDS011;54086;50.126;8.710;2022-08-18T07:43:23;14.07;;;8.30;;
67156;SDS011;54086;50.126;8.710;2022-08-18T07:46:00;14.95;;;9.13;;
67156;SDS011;54086;50.126;8.710;2022-08-18T07:48:54;24.85;;;11.55;;
67156;SDS011;54086;50.126;8.710;2022-08-18T07:59:43;19.15;;;8.95;;
67156;SDS011;54086;50.126;8.710;2022-08-18T08:07:58;16.37;;;9.87;;
67156;SDS011;54086;50.126;8.710;2022-08-18T08:10:43;15.75;;;8.95;;
67156;SDS011;54086;50.126;8.710;2022-08-18T08:13:38;14.35;;;8.35;;
67156;SDS011;54086;50.126;8.710;2022-08-18T08:16:19;13.25;;;8.20;;
67156;SDS011;54086;50.126;8.710;2022-08-18T08:19:04;13.80;;;8.27;;
67156;SDS011;54086;50.126;8.710;2022-08-18T08:21:41;15.87;;;8.70;;
67156;SDS011;54086;50.126;8.710;2022-08-18T08:24:28;14.25;;;8.27;;
67156;SDS011;54086;50.126;8.710;2022-08-18T08:27:16;16.00;;;9.57;;
67156;SDS011;54086;50.126;8.710;2022-08-18T08:32:30;13.53;;;9.33;;
67156;SDS011;54086;50.126;8.710;2022-08-18T08:35:11;14.98;;;9.32;;
67156;SDS011;54086;50.126;8.710;2022-08-18T08:37:47;19.80;;;9.88;;
67156;SDS011;54086;50.126;8.710;2022-08-18T08:40:18;14.38;;;8.25;;
67156;SDS011;54086;50.126;8.710;2022-08-18T08:42:49;13.97;;;8.57;;
67156;SDS011;54086;50.126;8.710;2022-08-18T08:45:22;12.27;;;8.30;;
67156;SDS011;54086;50.126;8.710;2022-08-18T08:51:26;15.07;;;9.05;;
67156;SDS011;54086;50.126;8.710;2022-08-18T08:53:42;14.73;;;9.43;;
67156;SDS011;54086;50.126;8.710;2022-08-18T08:56:13;17.70;;;9.83;;
67156;SDS011;54086;50.126;8.710;2022-08-18T08:58:57;13.80;;;9.23;;
67156;SDS011;54086;50.126;8.710;2022-08-18T09:03:59;14.68;;;10.55;;
67156;SDS011;54086;50.126;8.710;2022-08-18T09:21:12;21.98;;;11.68;;
67156;SDS011;54086;50.126;8.710;2022-08-18T09:29:48;21.83;;;14.70;;
67156;SDS011;54086;50.126;8.710;2022-08-18T09:37:57;23.70;;;16.50;;
67156;SDS011;54086;50.126;8.710;2022-08-18T09:40:52;25.48;;;18.10;;
67156;SDS011;54086;50.126;8.710;2022-08-18T09:49:51;27.92;;;19.25;;
67156;SDS011;54086;50.126;8.710;2022-08-18T09:51:52;28.52;;;19.95;;
67156;SDS011;54086;50.126;8.710;2022-08-18T09:54:23;35.35;;;19.48;;
67156;SDS011;54086;50.126;8.710;2022-08-18T10:01:57;26.75;;;17.95;;
67156;SDS011;54086;50.126;8.710;2022-08-18T10:04:25;26.40;;;19.17;;
67156;SDS011;54086;50.126;8.710;2022-08-18T10:06:52;25.60;;;18.83;;
67156;SDS011;54086;50.126;8.710;2022-08-18T10:09:30;23.53;;;18.13;;
67156;SDS011;54086;50.126;8.710;2022-08-18T10:28:58;21.23;;;15.27;;
67156;SDS011;54086;50.126;8.710;2022-08-18T10:31:24;21.85;;;16.52;;
67156;SDS011;54086;50.126;8.710;2022-08-18T10:34:09;23.60;;;15.47;;
67156;SDS011;54086;50.126;8.710;2022-08-18T10:36:40;21.30;;;15.45;;
67156;SDS011;54086;50.126;8.710;2022-08-18T10:39:07;22.45;;;15.65;;
67156;SDS011;54086;50.126;8.710;2022-08-18T10:41:36;18.63;;;13.98;;
67156;SDS011;54086;50.126;8.710;2022-08-18T10:44:12;22.05;;;15.05;;
67156;SDS011;54086;50.126;8.710;2022-08-18T10:46:41;21.00;;;14.97;;
67156;SDS011;54086;50.126;8.710;2022-08-18T10:54:27;24.55;;;15.95;;
67156;SDS011;54086;50.126;8.710;2022-08-18T10:57:03;21.45;;;14.23;;
67156;SDS011;54086;50.126;8.710;2022-08-18T10:59:50;21.13;;;13.57;;
67156;SDS011;54086;50.126;8.710;2022-08-18T11:02:45;18.40;;;13.52;;
67156;SDS011;54086;50.126;8.710;2022-08-18T11:05:24;20.27;;;14.88;;
67156;SDS011;54086;50.126;8.710;2022-08-18T11:08:05;20.38;;;14.60;;
67156;SDS011;54086;50.126;8.710;2022-08-18T11:13:22;20.10;;;14.70;;
67156;SDS011;54086;50.126;8.710;2022-08-18T11:19:13;25.08;;;15.35;;
67156;SDS011;54086;50.126;8.710;2022-08-18T11:26:51;20.17;;;15.00;;
67156;SDS011;54086;50.126;8.710;2022-08-18T11:32:00;20.08;;;15.02;;
67156;SDS011;54086;50.126;8.710;2022-08-18T11:37:23;21.02;;;15.38;;
67156;SDS011;54086;50.126;8.710;2022-08-18T11:42:49;21.00;;;14.52;;
67156;SDS011;54086;50.126;8.710;2022-08-18T11:45:20;19.20;;;14.35;;
67156;SDS011;54086;50.126;8.710;2022-08-18T11:53:21;21.90;;;13.53;;
67156;SDS011;54086;50.126;8.710;2022-08-18T11:58:54;19.58;;;14.20;;
67156;SDS011;54086;50.126;8.710;2022-08-18T12:03:57;18.27;;;13.98;;
67156;SDS011;54086;50.126;8.710;2022-08-18T12:06:31;17.47;;;13.33;;
67156;SDS011;54086;50.126;8.710;2022-08-18T12:09:00;19.03;;;13.93;;
67156;SDS011;54086;50.126;8.710;2022-08-18T12:11:31;18.80;;;14.55;;
67156;SDS011;54086;50.126;8.710;2022-08-18T12:14:01;17.95;;;12.93;;
67156;SDS011;54086;50.126;8.710;2022-08-18T12:16:37;18.02;;;12.88;;
67156;SDS011;54086;50.126;8.710;2022-08-18T12:19:05;18.30;;;12.30;;
67156;SDS011;54086;50.126;8.710;2022-08-18T12:21:35;16.97;;;12.87;;
67156;SDS011;54086;50.126;8.710;2022-08-18T12:24:02;16.83;;;12.82;;
67156;SDS011;54086;50.126;8.710;2022-08-18T12:26:28;14.52;;;11.35;;
67156;SDS011;54086;50.126;8.710;2022-08-18T12:28:54;15.63;;;11.40;;
67156;SDS011;54086;50.126;8.710;2022-08-18T12:31:19;16.80;;;11.40;;
67156;SDS011;54086;50.126;8.710;2022-08-18T12:33:45;15.87;;;11.27;;
67156;SDS011;54086;50.126;8.710;2022-08-18T12:36:10;14.70;;;12.50;;
67156;SDS011;54086;50.126;8.710;2022-08-18T12:38:43;15.55;;;11.38;;
67156;SDS011;54086;50.126;8.710;2022-08-18T12:41:09;15.45;;;12.13;;
67156;SDS011;54086;50.126;8.710;2022-08-18T12:43:36;17.97;;;13.27;;
67156;SDS011;54086;50.126;8.710;2022-08-18T12:46:03;18.53;;;12.73;;
67156;SDS011;54086;50.126;8.710;2022-08-18T12:48:28;13.93;;;10.13;;
67156;SDS011;54086;50.126;8.710;2022-08-18T12:50:55;14.77;;;10.25;;
67156;SDS011;54086;50.126;8.710;2022-08-18T12:53:21;18.20;;;11.13;;
67156;SDS011;54086;50.126;8.710;2022-08-18T12:55:48;17.67;;;12.52;;
67156;SDS011;54086;50.126;8.710;2022-08-18T12:58:13;16.53;;;12.47;;
67156;SDS011;54086;50.126;8.710;2022-08-18T13:00:39;14.07;;;11.45;;
67156;SDS011;54086;50.126;8.710;2022-08-18T13:03:05;14.73;;;11.63;;
67156;SDS011;54086;50.126;8.710;2022-08-18T13:05:31;17.52;;;11.90;;
67156;SDS011;54086;50.126;8.710;2022-08-18T13:07:56;14.37;;;11.60;;
67156;SDS011;54086;50.126;8.710;2022-08-18T13:10:24;15.25;;;12.23;;
67156;SDS011;54086;50.126;8.710;2022-08-18T13:12:50;17.37;;;11.90;;
67156;SDS011;54086;50.126;8.710;2022-08-18T13:15:15;15.03;;;12.00;;
67156;SDS011;54086;50.126;8.710;2022-08-18T13:17:40;14.18;;;10.48;;
67156;SDS011;54086;50.126;8.710;2022-08-18T13:20:08;12.17;;;10.13;;
67156;SDS011;54086;50.126;8.710;2022-08-18T13:22:37;15.45;;;10.30;;
67156;SDS011;54086;50.126;8.710;2022-08-18T13:25:04;14.07;;;10.30;;
67156;SDS011;54086;50.126;8.710;2022-08-18T13:27:32;12.23;;;10.13;;
67156;SDS011;54086;50.126;8.710;2022-08-18T13:29:58;16.63;;;10.60;;
67156;SDS011;54086;50.126;8.710;2022-08-18T13:32:23;14.52;;;11.20;;
67156;SDS011;54086;50.126;8.710;2022-08-18T13:34:50;14.00;;;11.30;;
67156;SDS011;54086;50.126;8.710;2022-08-18T13:37:15;15.03;;;11.33;;
67156;SDS011;54086;50.126;8.710;2022-08-18T13:39:41;14.57;;;10.87;;
67156;SDS011;54086;50.126;8.710;2022-08-18T13:42:06;14.55;;;10.82;;
67156;SDS011;54086;50.126;8.710;2022-08-18T13:44:31;14.23;;;10.53;;
67156;SDS011;54086;50.126;8.710;2022-08-18T13:46:57;13.53;;;11.40;;
67156;SDS011;54086;50.126;8.710;2022-08-18T13:49:22;13.87;;;11.00;;
67156;SDS011;54086;50.126;8.710;2022-08-18T13:51:49;15.85;;;12.05;;
67156;SDS011;54086;50.126;8.710;2022-08-18T13:54:20;14.38;;;10.98;;
67156;SDS011;54086;50.126;8.710;2022-08-18T13:56:47;15.40;;;11.65;;
67156;SDS011;54086;50.126;8.710;2022-08-18T13:59:14;14.68;;;11.35;;
67156;SDS011;54086;50.126;8.710;2022-08-18T14:01:40;14.10;;;10.77;;
67156;SDS011;54086;50.126;8.710;2022-08-18T14:04:06;12.65;;;10.45;;
67156;SDS011;54086;50.126;8.710;2022-08-18T14:06:33;16.83;;;10.37;;
67156;SDS011;54086;50.126;8.710;2022-08-18T14:08:58;12.20;;;9.27;;
67156;SDS011;54086;50.126;8.710;2022-08-18T14:11:26;13.37;;;9.50;;
67156;SDS011;54086;50.126;8.710;2022-08-18T14:13:53;16.80;;;9.77;;
67156;SDS011;54086;50.126;8.710;2022-08-18T14:16:19;11.98;;;8.80;;
67156;SDS011;54086;50.126;8.710;2022-08-18T14:18:46;11.47;;;8.50;;
67156;SDS011;54086;50.126;8.710;2022-08-18T14:21:32;12.65;;;8.73;;
67156;SDS011;54086;50.126;8.710;2022-08-18T14:24:17;11.57;;;8.98;;
67156;SDS011;54086;50.126;8.710;2022-08-18T14:27:01;16.58;;;10.52;;
67156;SDS011;54086;50.126;8.710;2022-08-18T14:29:27;14.07;;;10.00;;
67156;SDS011;54086;50.126;8.710;2022-08-18T14:31:52;12.25;;;8.55;;
67156;SDS011;54086;50.126;8.710;2022-08-18T14:34:17;11.27;;;9.23;;
67156;SDS011;54086;50.126;8.710;2022-08-18T14:36:43;13.83;;;10.37;;
67156;SDS011;54086;50.126;8.710;2022-08-18T14:39:09;13.88;;;9.90;;
67156;SDS011;54086;50.126;8.710;2022-08-18T14:41:34;10.27;;;8.30;;
67156;SDS011;54086;50.126;8.710;2022-08-18T14:44:01;11.55;;;8.43;;
67156;SDS011;54086;50.126;8.710;2022-08-18T14:46:27;11.27;;;7.72;;
67156;SDS011;54086;50.126;8.710;2022-08-18T14:48:52;10.40;;;8.00;;
67156;SDS011;54086;50.126;8.710;2022-08-18T14:51:18;10.10;;;8.00;;
67156;SDS011;54086;50.126;8.710;2022-08-18T14:53:43;17.00;;;8.68;;
67156;SDS011;54086;50.126;8.710;2022-08-18T14:56:09;12.37;;;9.60;;
67156;SDS011;54086;50.126;8.710;2022-08-18T14:58:36;11.65;;;8.70;;
67156;SDS011;54086;50.126;8.710;2022-08-18T15:01:06;12.10;;;9.50;;
67156;SDS011;54086;50.126;8.710;2022-08-18T15:03:34;10.93;;;8.70;;
67156;SDS011;54086;50.126;8.710;2022-08-18T15:06:00;14.07;;;9.50;;
67156;SDS011;54086;50.126;8.710;2022-08-18T15:08:27;12.73;;;9.30;;
67156;SDS011;54086;50.126;8.710;2022-08-18T15:10:53;13.02;;;9.23;;
67156;SDS011;54086;50.126;8.710;2022-08-18T15:13:19;12.27;;;10.00;;
67156;SDS011;54086;50.126;8.710;2022-08-18T15:15:46;12.88;;;9.85;;
67156;SDS011;54086;50.126;8.710;2022-08-18T15:18:11;13.97;;;9.60;;
67156;SDS011;54086;50.126;8.710;2022-08-18T15:20:37;11.60;;;9.60;;
67156;SDS011;54086;50.126;8.710;2022-08-18T15:23:23;12.23;;;10.18;;
67156;SDS011;54086;50.126;8.710;2022-08-18T15:26:08;14.15;;;10.40;;
67156;SDS011;54086;50.126;8.710;2022-08-18T15:28:34;14.10;;;10.00;;
67156;SDS011;54086;50.126;8.710;2022-08-18T15:31:00;16.03;;;9.80;;
67156;SDS011;54086;50.126;8.710;2022-08-18T15:33:25;12.65;;;9.30;;
67156;SDS011;54086;50.126;8.710;2022-08-18T15:35:52;14.40;;;10.25;;
67156;SDS011;54086;50.126;8.710;2022-08-18T15:38:19;12.77;;;10.03;;
67156;SDS011;54086;50.126;8.710;2022-08-18T15:40:52;14.75;;;9.95;;
67156;SDS011;54086;50.126;8.710;2022-08-18T15:43:22;11.60;;;8.95;;
67156;SDS011;54086;50.126;8.710;2022-08-18T15:45:49;14.82;;;9.80;;
67156;SDS011;54086;50.126;8.710;2022-08-18T15:48:16;13.32;;;9.88;;
67156;SDS011;54086;50.126;8.710;2022-08-18T15:50:43;13.77;;;9.47;;
67156;SDS011;54086;50.126;8.710;2022-08-18T15:53:12;15.87;;;9.40;;
67156;SDS011;54086;50.126;8.710;2022-08-18T15:55:39;13.05;;;9.60;;
67156;SDS011;54086;50.126;8.710;2022-08-18T15:58:05;13.68;;;9.88;;
67156;SDS011;54086;50.126;8.710;2022-08-18T16:00:31;16.23;;;9.98;;
67156;SDS011;54086;50.126;8.710;2022-08-18T16:02:58;14.07;;;9.50;;
67156;SDS011;54086;50.126;8.710;2022-08-18T16:05:27;16.67;;;11.18;;
67156;SDS011;54086;50.126;8.710;2022-08-18T16:07:55;13.15;;;9.95;;
67156;SDS011;54086;50.126;8.710;2022-08-18T16:10:21;12.23;;;9.23;;
67156;SDS011;54086;50.126;8.710;2022-08-18T16:12:49;25.15;;;10.98;;
67156;SDS011;54086;50.126;8.710;2022-08-18T16:15:18;14.70;;;10.40;;
67156;SDS011;54086;50.126;8.710;2022-08-18T16:17:47;12.90;;;9.18;;
67156;SDS011;54086;50.126;8.710;2022-08-18T16:20:13;14.23;;;9.23;;
67156;SDS011;54086;50.126;8.710;2022-08-18T16:22:39;13.70;;;9.53;;
67156;SDS011;54086;50.126;8.710;2022-08-18T16:25:05;14.00;;;9.50;;
67156;SDS011;54086;50.126;8.710;2022-08-18T16:27:32;11.40;;;8.30;;
67156;SDS011;54086;50.126;8.710;2022-08-18T16:29:59;11.77;;;8.20;;
67156;SDS011;54086;50.126;8.710;2022-08-18T16:32:24;12.20;;;7.80;;
67156;SDS011;54086;50.126;8.710;2022-08-18T16:34:50;11.02;;;7.93;;
67156;SDS011;54086;50.126;8.710;2022-08-18T16:37:16;11.15;;;7.55;;
67156;SDS011;54086;50.126;8.710;2022-08-18T16:39:42;11.20;;;7.20;;
67156;SDS011;54086;50.126;8.710;2022-08-18T16:42:07;11.95;;;7.50;;
67156;SDS011;54086;50.126;8.710;2022-08-18T16:44:34;11.53;;;7.00;;
67156;SDS011;54086;50.126;8.710;2022-08-18T16:47:00;10.67;;;6.27;;
67156;SDS011;54086;50.126;8.710;2022-08-18T16:49:28;11.23;;;7.07;;
67156;SDS011;54086;50.126;8.710;2022-08-18T16:51:54;11.60;;;7.37;;
67156;SDS011;54086;50.126;8.710;2022-08-18T16:54:19;11.60;;;7.22;;
67156;SDS011;54086;50.126;8.710;2022-08-18T16:56:46;10.98;;;8.00;;
67156;SDS011;54086;50.126;8.710;2022-08-18T16:59:11;12.73;;;8.77;;
67156;SDS011;54086;50.126;8.710;2022-08-18T17:01:55;17.35;;;9.65;;
67156;SDS011;54086;50.126;8.710;2022-08-18T17:04:39;14.17;;;9.13;;